Latest Weather Observations for Frederick Reef

IDQ60801

Issued at 5:05 pm EST Wednesday 26 November 2014 (issued every 30 minutes, with the page automatically refreshed every 10 minutes)

About weather observations | Map of weather stations | Latest weather observations for QLD | Other Formats
Station Details ID: 200701 Name: FREDERICK REEF Lat: -20.94 Lon: 154.40 Height: 4.9 m
Data from the previous 72 hours. | See also: Recent months for locations in Queensland
Date/Time
EST
Temp
°C
App
Temp
°C
Dew
Point
Rel
Hum
%
Delta-T
°C
Wind Press
QNH
hPa
Press
MSL
hPa
Rain
since 9 am
mm
Dir
 
Spd
km/h
Gust
km/h
Spd
kts
Gust
kts
26/05:00pm 25.7 - - - - ESE 30 35 16 19 1012.6 - -
26/04:30pm 25.6 - - - - ESE 32 37 17 20 1012.3 - -
26/04:00pm 25.7 - - - - ESE 28 35 15 19 1012.3 1012.0 -
26/03:30pm 25.7 - - - - ESE 28 32 15 17 1012.3 - -
26/03:00pm 25.6 - - - - ESE 30 32 16 17 1012.2 1011.9 -
26/02:30pm 25.6 - - - - E 2 6 1 3 1012.2 - -
26/02:00pm 25.7 - - - - E 2 6 1 3 1012.4 1012.0 -
26/01:30pm 25.6 - - - - E 2 6 1 3 1012.7 - -
26/01:00pm 25.6 - - - - E 2 6 1 3 1012.9 1012.5 -
26/12:30pm 25.7 - - - - E 2 6 1 3 1013.1 - -
26/12:00pm 25.7 - - - - E 2 6 1 3 1013.5 1013.2 -
26/11:30am 25.4 - - - - E 32 35 17 19 1013.6 - -
26/11:00am 25.6 - - - - E 33 39 18 21 1013.7 1013.4 -
26/10:30am 25.6 - - - - ESE 33 37 18 20 1014.0 - -
26/10:00am 25.5 - - - - E 32 35 17 19 1014.2 1013.8 -
26/09:30am 25.4 - - - - ESE 30 35 16 19 1014.5 - -
26/09:00am 25.5 - - - - ESE 28 32 15 17 1014.7 1014.4 -
26/08:30am 25.3 - - - - ESE 32 37 17 20 1014.5 - -
26/08:00am 25.1 - - - - ESE 33 37 18 20 1014.3 1014.0 -
26/07:30am 25.2 - - - - ESE 32 37 17 20 1014.3 - -
26/07:00am 25.3 - - - - E 33 39 18 21 1014.0 1013.7 -
26/06:30am 25.2 - - - - E 30 35 16 19 1013.9 - -
26/06:00am 25.2 - - - - E 32 35 17 19 1013.8 1013.5 -
26/05:30am 25.0 - - - - E 32 35 17 19 1013.6 - -
26/05:00am 24.8 - - - - ESE 33 35 18 19 1013.2 1012.9 -
26/04:30am 24.8 - - - - ESE 35 41 19 22 1013.1 - -
26/04:03am 24.8 - - - - E 35 39 19 21 1012.8 - -
26/04:00am 24.8 - - - - E 35 6 19 3 1012.8 1012.6 -
26/03:30am 24.7 - - - - E 4 6 2 3 1012.7 - -
26/03:00am 24.7 - - - - ESE 2 6 1 3 1012.6 - -
26/02:30am 24.7 - - - - ESE 2 6 1 3 1012.8 - -
26/02:00am 24.6 - - - - E 2 6 1 3 1012.8 - -
26/01:30am 25.0 - - - - ESE 2 4 1 2 1012.8 - -
26/01:00am 24.8 - - - - ESE 2 6 1 3 1013.2 - -
26/12:30am 24.8 - - - - ESE 2 6 1 3 1013.5 - -
26/12:00am 24.9 - - - - ESE 2 6 1 3 1013.7 - -
 
Date/Time
EST
Temp
°C
App
Temp
°C
Dew
Point
Rel
Hum
%
Delta-T
°C
Wind Press
QNH
hPa
Press
MSL
hPa
Rain
since 9 am
mm
Dir
 
Spd
km/h
Gust
km/h
Spd
kts
Gust
kts
25/11:30pm 24.8 - - - - ESE 2 6 1 3 1014.1 - -
25/11:00pm 24.8 - - - - E 2 6 1 3 1014.2 - -
25/10:30pm 24.9 - - - - E 2 6 1 3 1014.5 - -
25/10:00pm 24.9 - - - - ESE 2 6 1 3 1014.5 - -
25/09:30pm 24.8 - - - - E 2 4 1 2 1014.5 - -
25/09:00pm 25.2 - - - - E 2 9 1 5 1014.3 - -
25/08:30pm 24.9 - - - - E 2 6 1 3 1014.1 - -
25/08:00pm 25.2 - - - - E 2 6 1 3 1014.0 - -
25/07:30pm 25.2 - - - - E 2 6 1 3 1013.5 - -
25/07:00pm 25.3 - - - - E 2 6 1 3 1013.4 - -
25/06:30pm 25.2 - - - - E 2 6 1 3 1013.2 - -
25/06:00pm 25.1 - - - - E 24 30 13 16 1013.0 1012.8 -
25/05:30pm 25.3 - - - - E 24 30 13 16 1012.8 - -
25/05:00pm 25.2 - - - - E 26 30 14 16 1012.5 1012.3 -
25/04:30pm 25.2 - - - - E 26 30 14 16 1012.5 - -
25/04:00pm 25.3 - - - - E 24 28 13 15 1012.5 1012.2 -
25/03:30pm 25.3 - - - - E 24 28 13 15 1012.7 - -
25/03:00pm 25.4 - - - - E 26 30 14 16 1012.5 1012.3 -
25/02:30pm 25.2 - - - - E 30 33 16 18 1012.5 - -
25/02:00pm 25.3 - - - - E 32 35 17 19 1012.7 1012.3 -
25/01:30pm 25.4 - - - - E 33 37 18 20 1012.9 - -
25/01:00pm 25.5 - - - - E 33 37 18 20 1013.3 1012.9 -
25/12:30pm 25.3 - - - - E 35 41 19 22 1013.5 - -
25/12:00pm 25.5 - - - - E 35 43 19 23 1013.8 1013.5 -
25/11:30am 25.6 - - - - E 37 41 20 22 1014.1 - -
25/11:00am 25.7 - - - - E 37 43 20 23 1014.1 1013.8 -
25/10:30am 25.5 - - - - E 39 43 21 23 1014.3 - -
25/10:00am 25.7 - - - - E 39 41 21 22 1014.7 1014.3 -
25/09:30am 25.8 - - - - E 41 44 22 24 1014.5 - -
25/09:00am 25.6 - - - - E 39 44 21 24 1014.6 1014.3 -
25/08:30am 25.7 - - - - E 41 46 22 25 1014.8 - -
25/08:00am 25.9 - - - - E 41 43 22 23 1014.6 1014.4 -
25/07:30am 25.7 - - - - E 41 46 22 25 1014.3 - -
25/07:00am 25.8 - - - - E 43 46 23 25 1014.3 1013.8 -
25/06:30am 25.8 - - - - E 44 48 24 26 1014.0 - -
25/06:00am 25.7 - - - - E 43 46 23 25 1013.8 1013.5 -
25/05:30am 25.6 - - - - E 41 44 22 24 1013.4 - -
25/05:00am 25.6 - - - - E 39 43 21 23 1013.1 1012.8 -
25/04:30am 25.6 - - - - E 39 44 21 24 1012.7 - -
25/04:00am 25.3 - - - - E 37 44 20 24 1012.5 - -
25/03:30am 24.6 - - - - ESE 32 37 17 20 1012.6 - -
25/03:00am 25.1 - - - - E 37 43 20 23 1012.5 - -
25/02:30am 25.4 - - - - E 35 41 19 22 1012.5 - -
25/02:00am 25.6 - - - - E 33 39 18 21 1012.6 - -
25/01:30am 25.8 - - - - E 35 39 19 21 1012.8 - -
25/01:00am 25.5 - - - - E 37 41 20 22 1012.8 1012.4 -
25/12:30am 25.5 - - - - E 39 43 21 23 1013.0 - -
25/12:00am 25.5 - - - - E 32 39 17 21 1013.5 1013.0 -
 
Date/Time
EST
Temp
°C
App
Temp
°C
Dew
Point
Rel
Hum
%
Delta-T
°C
Wind Press
QNH
hPa
Press
MSL
hPa
Rain
since 9 am
mm
Dir
 
Spd
km/h
Gust
km/h
Spd
kts
Gust
kts
24/11:30pm 25.5 - - - - E 35 39 19 21 1013.5 - -
24/11:00pm 25.3 - - - - E 39 44 21 24 1013.9 1013.5 -
24/10:30pm 25.5 - - - - E 37 41 20 22 1014.1 - -
24/10:00pm 24.8 - - - - E 44 54 24 29 1014.1 - -
24/09:30pm 25.7 - - - - ESE 41 46 22 25 1014.2 - -
24/09:00pm 25.7 - - - - ESE 35 39 19 21 1014.1 - -
24/08:30pm 25.7 - - - - ESE 35 39 19 21 1014.0 - -
24/08:00pm 25.7 - - - - ESE 33 39 18 21 1013.9 1013.6 -
24/07:30pm 25.4 - - - - ESE 33 39 18 21 1013.8 - -
24/07:00pm 25.2 - - - - ESE 33 39 18 21 1013.7 1013.4 -
24/06:30pm 25.7 - - - - ESE 37 44 20 24 1013.5 - -
24/06:00pm 25.8 - - - - ESE 35 39 19 21 1013.4 1013.2 -
24/05:30pm 25.8 - - - - ESE 33 37 18 20 1013.3 - -
24/05:00pm 25.7 - - - - ESE 33 39 18 21 1013.1 1012.9 -
24/04:30pm 25.9 - - - - ESE 32 33 17 18 1013.1 - -
24/04:00pm 25.7 - - - - ESE 30 33 16 18 1013.1 1012.8 -
24/03:30pm 25.7 - - - - ESE 32 35 17 19 1013.0 - -
24/03:00pm 25.8 - - - - ESE 33 37 18 20 1013.0 1012.7 -
24/02:30pm 25.7 - - - - ESE 33 37 18 20 1013.2 - -
24/02:00pm 25.8 - - - - ESE 33 37 18 20 1013.5 1013.2 -
24/01:30pm 25.7 - - - - E 33 37 18 20 1013.8 - -
24/01:00pm 25.6 - - - - E 35 37 19 20 1014.1 1013.7 -
24/12:30pm 25.4 - - - - ESE 33 37 18 20 1014.5 - -
24/12:00pm 25.6 - - - - E 32 37 17 20 1014.7 1014.4 -
24/11:30am 25.4 - - - - E 35 39 19 21 1014.9 - -
24/11:00am 25.4 - - - - E 35 39 19 21 1015.2 1014.8 -
24/10:30am 25.3 - - - - E 33 39 18 21 1015.5 - -
24/10:00am 25.4 - - - - E 35 39 19 21 1015.6 1015.3 -
24/09:30am 25.2 - - - - E 37 41 20 22 1015.8 - -
24/09:00am 25.2 - - - - E 37 41 20 22 1015.7 1015.4 -
24/08:30am 25.4 - - - - E 35 39 19 21 1016.1 - -
24/08:00am 25.5 - - - - E 37 41 20 22 1016.2 1015.9 -
24/07:30am 25.4 - - - - E 37 41 20 22 1016.0 - -
24/07:00am 25.3 - - - - E 37 41 20 22 1016.0 1015.7 -
24/06:30am 25.3 - - - - E 35 39 19 21 1015.8 - -
24/06:00am 25.2 - - - - E 35 39 19 21 1015.6 1015.4 -
24/05:30am 25.1 - - - - ESE 35 41 19 22 1015.2 - -
24/05:00am 25.1 - - - - ESE 33 35 18 19 1015.0 1014.8 -
24/04:30am 25.1 - - - - E 32 35 17 19 1015.0 - -
24/04:00am 25.1 - - - - E 4 39 2 21 1014.8 - -
24/03:30am 25.0 - - - - E 2 6 1 3 1014.7 - -
24/03:00am 25.1 - - - - E 2 6 1 3 1014.7 1014.4 -
24/02:30am 25.2 - - - - E 2 6 1 3 1014.7 - -
24/02:00am 25.2 - - - - E 2 6 1 3 1014.9 - -
24/01:30am 25.2 - - - - E 2 6 1 3 1014.9 - -
24/01:00am 25.3 - - - - E 2 6 1 3 1015.0 - -
24/12:30am 25.2 - - - - E 2 6 1 3 1015.3 - -
24/12:00am 24.9 - - - - ENE 2 7 1 4 1015.7 - -
 
Date/Time
EST
Temp
°C
App
Temp
°C
Dew
Point
Rel
Hum
%
Delta-T
°C
Wind Press
QNH
hPa
Press
MSL
hPa
Rain
since 9 am
mm
Dir
 
Spd
km/h
Gust
km/h
Spd
kts
Gust
kts
23/11:30pm 25.2 - - - - ENE 2 6 1 3 1015.8 - -
23/11:00pm 25.6 - - - - E 2 4 1 2 1015.9 - -
23/10:30pm 25.5 - - - - E 2 6 1 3 1016.0 - -
23/10:00pm 25.4 - - - - E 2 6 1 3 1016.0 - -
23/09:30pm 25.5 - - - - E 2 6 1 3 1016.0 - -
23/09:00pm 25.5 - - - - CALM 0 6 0 3 1015.8 - -
23/08:30pm 25.4 - - - - E 2 4 1 2 1015.7 - -
23/08:00pm 25.5 - - - - E 2 7 1 4 1015.6 - -
23/07:30pm 25.6 - - - - E 2 6 1 3 1015.4 - -
23/07:00pm 25.5 - - - - E 2 6 1 3 1015.2 - -
23/06:30pm 25.5 - - - - E 6 35 3 19 1015.0 - -
23/06:00pm 25.6 - - - - E 32 35 17 19 1014.9 1014.6 -
23/05:30pm 25.8 - - - - E 32 35 17 19 1014.8 - -

Other Formats:

Comma delimited format used in spreadsheet applications
http://www.bom.gov.au/fwo/IDQ60801/IDQ60801.94393.axf

JavaScript Object Notation format (JSON) in row-major order
http://www.bom.gov.au/fwo/IDQ60801/IDQ60801.94393.json